< < Back
Terminal Aerodrome Forecast


Current Version              Previous Versions:   1  2  3  4  5  6  7  8  9  

Terminal Aerodrome Forecast

459
FTUS42 KMLB 250500
TAFDAB
TAF
KDAB 250520Z 2506/2606 31004KT P6SM SCT045
      TEMPO 2506/2509 BKN045
     FM251500 35010KT P6SM SCT035
     FM260000 36003KT P6SM SKC=

Latest METAR

341
SAUS80 KWBC 252200 CCA
MTRDAB
METAR KDAB 252153Z 03011KT 10SM FEW045 23/15 A2996 RMK AO2 SLP144
T02330150


USA.gov is the U.S. government's official web portal to all federal, state and local government web resources and services.